Time;durP1;ratioP1;P1;durP2;ratioP2;P2;SDS_P1;SDS_P2;PMS_P1;PMS_P2;Temp;Humidity;BMP_temperature;BMP_pressure;BME280_temperature;BME280_humidity;BME280_pressure;Samples;Min_cycle;Max_cycle;Signal;HPM_P1;HPM_P2
2022/11/28 00:01:16;;;;;;;15.45;10.50;;;;;;;;;;4995292;28;22103;-70
2022/11/28 00:03:42;;;;;;;14.02;10.52;;;;;;;;;;4996805;28;20036;-70
2022/11/28 00:06:08;;;;;;;18.83;11.55;;;;;;;;;;4998210;28;20033;-70
2022/11/28 00:08:35;;;;;;;17.20;11.18;;;;;;;;;;4999726;28;20104;-70
2022/11/28 00:11:08;;;;;;;13.90;9.35;;;;;;;;;;4996845;28;20454;-70
2022/11/28 00:13:35;;;;;;;16.17;10.18;;;;;;;;;;4994754;28;20140;-71
2022/11/28 00:16:02;;;;;;;14.68;9.73;;;;;;;;;;5000081;28;20049;-71
2022/11/28 00:18:29;;;;;;;15.88;9.88;;;;;;;;;;4992722;28;20042;-71
2022/11/28 00:20:59;;;;;;;12.55;8.98;;;;;;;;;;4989353;28;20053;-71
2022/11/28 00:23:25;;;;;;;13.77;8.15;;;;;;;;;;4993498;28;20049;-71
2022/11/28 00:25:59;;;;;;;11.50;8.52;;;;;;;;;;4989122;28;20079;-71
2022/11/28 00:28:25;;;;;;;11.53;7.87;;;;;;;;;;4993108;28;20174;-71
2022/11/28 00:30:51;;;;;;;11.57;8.07;;;;;;;;;;5000948;28;20053;-71
2022/11/28 00:33:17;;;;;;;13.00;8.57;;;;;;;;;;4993054;28;20051;-70
2022/11/28 00:35:43;;;;;;;10.80;7.70;;;;;;;;;;4995607;28;20133;-70
2022/11/28 00:38:09;;;;;;;8.65;6.63;;;;;;;;;;4994929;28;20073;-70
2022/11/28 00:40:35;;;;;;;9.18;7.07;;;;;;;;;;4996951;28;20044;-71
2022/11/28 00:43:01;;;;;;;9.98;7.53;;;;;;;;;;4998470;28;20056;-72
2022/11/28 00:45:27;;;;;;;10.50;7.05;;;;;;;;;;4983172;28;20053;-72
2022/11/28 00:47:53;;;;;;;12.98;7.28;;;;;;;;;;4992213;28;20048;-70
2022/11/28 00:50:19;;;;;;;14.38;7.13;;;;;;;;;;4996267;28;20041;-70
2022/11/28 00:52:45;;;;;;;11.25;7.47;;;;;;;;;;4990935;28;20048;-70
2022/11/28 00:55:11;;;;;;;9.18;6.82;;;;;;;;;;4993296;28;20050;-70
2022/11/28 00:57:37;;;;;;;10.65;6.97;;;;;;;;;;4978439;28;20038;-71
2022/11/28 01:00:05;;;;;;;8.27;7.38;;;;;;;;;;4997048;28;20056;-71
2022/11/28 01:02:31;;;;;;;10.48;7.60;;;;;;;;;;4991900;28;21843;-71
2022/11/28 01:04:57;;;;;;;10.50;8.40;;;;;;;;;;4990187;28;20131;-71
2022/11/28 01:07:27;;;;;;;12.90;8.80;;;;;;;;;;4995346;28;20061;-70
2022/11/28 01:09:54;;;;;;;14.73;8.63;;;;;;;;;;4977513;28;20195;-70
2022/11/28 01:12:20;;;;;;;15.23;9.30;;;;;;;;;;5010790;28;20449;-70
2022/11/28 01:14:46;;;;;;;13.13;8.80;;;;;;;;;;4998009;28;20060;-70
2022/11/28 01:17:12;;;;;;;12.85;9.95;;;;;;;;;;4992225;28;20052;-70
2022/11/28 01:19:38;;;;;;;14.50;9.00;;;;;;;;;;4994536;28;20045;-72
2022/11/28 01:22:05;;;;;;;13.25;9.40;;;;;;;;;;4973876;28;20069;-71
2022/11/28 01:24:32;;;;;;;11.63;8.38;;;;;;;;;;4990729;28;20056;-72
2022/11/28 01:26:58;;;;;;;13.43;9.32;;;;;;;;;;4988943;28;20053;-71
2022/11/28 01:29:24;;;;;;;14.40;10.15;;;;;;;;;;4994608;28;20046;-72
2022/11/28 01:31:51;;;;;;;11.52;9.65;;;;;;;;;;4978684;28;20772;-71
2022/11/28 01:34:17;;;;;;;14.05;9.77;;;;;;;;;;4987833;28;21548;-71
2022/11/28 01:36:43;;;;;;;12.77;8.88;;;;;;;;;;4995228;28;20185;-71
2022/11/28 01:39:11;;;;;;;11.90;8.63;;;;;;;;;;4989021;28;20038;-72
2022/11/28 01:41:38;;;;;;;11.63;8.63;;;;;;;;;;4990881;28;20049;-72
2022/11/28 01:44:04;;;;;;;13.38;9.65;;;;;;;;;;4994641;28;20116;-72
2022/11/28 01:46:30;;;;;;;12.85;9.23;;;;;;;;;;4994474;28;20132;-72
2022/11/28 01:48:59;;;;;;;13.02;9.02;;;;;;;;;;4990844;28;20160;-71
2022/11/28 01:51:25;;;;;;;12.23;8.63;;;;;;;;;;4993696;28;20050;-72
2022/11/28 01:53:51;;;;;;;14.52;10.18;;;;;;;;;;4979056;28;20056;-72
2022/11/28 01:56:20;;;;;;;15.45;9.95;;;;;;;;;;4993210;28;20060;-71
2022/11/28 01:58:49;;;;;;;13.75;9.70;;;;;;;;;;4990147;28;20045;-72
2022/11/28 02:01:16;;;;;;;14.57;9.07;;;;;;;;;;4993020;28;20099;-71
2022/11/28 02:03:46;;;;;;;12.82;9.50;;;;;;;;;;4984468;28;20045;-72
2022/11/28 02:06:14;;;;;;;14.52;10.27;;;;;;;;;;4977771;28;20046;-72
2022/11/28 02:08:40;;;;;;;14.60;9.10;;;;;;;;;;4974477;28;20131;-72
2022/11/28 02:11:16;;;;;;;11.70;9.50;;;;;;;;;;4990862;28;21683;-71
2022/11/28 02:13:45;;;;;;;16.55;9.98;;;;;;;;;;4992375;28;21350;-71
2022/11/28 02:16:29;;;;;;;12.85;9.80;;;;;;;;;;4996433;28;20152;-72
2022/11/28 02:19:15;;;;;;;15.25;10.85;;;;;;;;;;4994853;28;20062;-71
2022/11/28 02:21:47;;;;;;;14.02;10.85;;;;;;;;;;4993261;28;20080;-71
2022/11/28 02:24:32;;;;;;;15.95;10.45;;;;;;;;;;4994351;28;20053;-71
2022/11/28 02:26:58;;;;;;;17.20;11.60;;;;;;;;;;4991882;28;20271;-72
2022/11/28 02:29:30;;;;;;;18.45;12.80;;;;;;;;;;4988171;28;20234;-71
2022/11/28 02:32:06;;;;;;;19.88;12.90;;;;;;;;;;4985107;28;20100;-71
2022/11/28 02:34:42;;;;;;;22.15;13.75;;;;;;;;;;4977614;28;22289;-71
2022/11/28 02:37:12;;;;;;;19.77;14.90;;;;;;;;;;4987115;28;20386;-71
2022/11/28 02:39:41;;;;;;;26.10;16.20;;;;;;;;;;4989883;28;20045;-71
2022/11/28 02:42:07;;;;;;;29.92;17.13;;;;;;;;;;4987503;28;20705;-71
2022/11/28 02:44:55;;;;;;;24.70;16.80;;;;;;;;;;4988269;28;20704;-71
2022/11/28 02:47:36;;;;;;;24.83;17.25;;;;;;;;;;4985619;28;20042;-72
2022/11/28 02:50:18;;;;;;;25.58;15.75;;;;;;;;;;4990726;28;20169;-72
2022/11/28 02:52:47;;;;;;;31.50;18.38;;;;;;;;;;4991421;28;20096;-71
2022/11/28 02:55:13;;;;;;;28.98;19.23;;;;;;;;;;4990650;28;20088;-71
2022/11/28 02:57:46;;;;;;;30.13;20.17;;;;;;;;;;4988989;28;20065;-72
2022/11/28 03:00:26;;;;;;;31.92;20.85;;;;;;;;;;4992765;28;20045;-71
2022/11/28 03:03:00;;;;;;;33.10;21.30;;;;;;;;;;4995386;28;20041;-71
2022/11/28 03:05:26;;;;;;;;;;;;;;;;;;4994438;28;20053;-71
2022/11/28 03:08:11;;;;;;;31.67;21.20;;;;;;;;;;4989572;28;19928;-71
2022/11/28 03:10:49;;;;;;;35.47;21.48;;;;;;;;;;4996113;28;20104;-71
2022/11/28 03:13:25;;;;;;;35.00;22.50;;;;;;;;;;4991600;28;20045;-71
2022/11/28 03:16:01;;;;;;;34.72;21.75;;;;;;;;;;4991559;28;20110;-71
2022/11/28 03:18:35;;;;;;;40.47;22.85;;;;;;;;;;4992781;28;20060;-71
2022/11/28 03:21:09;;;;;;;33.72;22.05;;;;;;;;;;4991380;28;21322;-71
2022/11/28 03:23:42;;;;;;;34.95;22.30;;;;;;;;;;4999172;28;20100;-71
2022/11/28 03:26:29;;;;;;;31.92;21.23;;;;;;;;;;4993979;28;20034;-71
2022/11/28 03:29:22;;;;;;;28.65;18.83;;;;;;;;;;5010409;28;20045;-71
2022/11/28 03:31:53;;;;;;;31.27;19.95;;;;;;;;;;4985309;28;20065;-71
2022/11/28 03:34:21;;;;;;;34.03;20.40;;;;;;;;;;4993508;28;20053;-70
2022/11/28 03:36:51;;;;;;;35.95;22.05;;;;;;;;;;4990522;28;20046;-70
2022/11/28 03:39:20;;;;;;;36.28;20.00;;;;;;;;;;4994665;28;20053;-71
2022/11/28 03:41:52;;;;;;;34.88;20.17;;;;;;;;;;4994025;28;20050;-71
2022/11/28 03:44:20;;;;;;;35.05;21.67;;;;;;;;;;4996168;28;20063;-71
2022/11/28 03:46:47;;;;;;;36.22;19.75;;;;;;;;;;4996285;28;20045;-71
2022/11/28 03:49:19;;;;;;;37.05;23.60;;;;;;;;;;4993964;28;20099;-71
2022/11/28 03:51:51;;;;;;;40.50;22.70;;;;;;;;;;4991637;28;20116;-71
2022/11/28 03:54:24;;;;;;;32.47;21.88;;;;;;;;;;4991927;28;22061;-71
2022/11/28 03:56:59;;;;;;;33.25;21.80;;;;;;;;;;4994483;28;20048;-71
2022/11/28 03:59:44;;;;;;;34.17;22.25;;;;;;;;;;4993721;28;20172;-71
2022/11/28 04:02:29;;;;;;;35.20;22.15;;;;;;;;;;5003711;28;21950;-71
2022/11/28 04:05:03;;;;;;;34.35;21.75;;;;;;;;;;4979850;28;20049;-71
2022/11/28 04:07:29;;;;;;;;;;;;;;;;;;4978051;28;20062;-71
2022/11/28 04:10:14;;;;;;;33.47;21.25;;;;;;;;;;4994367;28;19947;-71
2022/11/28 04:12:45;;;;;;;36.42;22.27;;;;;;;;;;4992366;28;20056;-71
2022/11/28 04:15:18;;;;;;;33.33;22.65;;;;;;;;;;4989431;28;20136;-71
2022/11/28 04:17:58;;;;;;;33.50;20.60;;;;;;;;;;4971757;28;20069;-71
2022/11/28 04:20:32;;;;;;;35.17;21.42;;;;;;;;;;4992179;28;20045;-71
2022/11/28 04:23:01;;;;;;;35.45;22.52;;;;;;;;;;4989861;28;20659;-72
2022/11/28 04:25:29;;;;;;;37.95;22.13;;;;;;;;;;4993036;28;20041;-72
2022/11/28 04:27:57;;;;;;;35.70;22.92;;;;;;;;;;4994709;28;20049;-71
2022/11/28 04:30:23;;;;;;;37.22;22.83;;;;;;;;;;4988399;28;20049;-71
2022/11/28 04:32:51;;;;;;;38.28;23.45;;;;;;;;;;4994354;28;20400;-71
2022/11/28 04:35:24;;;;;;;44.42;24.50;;;;;;;;;;4996174;28;21416;-71
2022/11/28 04:37:51;;;;;;;38.03;24.35;;;;;;;;;;4991897;28;20041;-72
2022/11/28 04:40:17;;;;;;;42.60;24.58;;;;;;;;;;4992519;28;21011;-71
2022/11/28 04:42:46;;;;;;;36.08;24.00;;;;;;;;;;4974234;28;20041;-71
2022/11/28 04:45:15;;;;;;;40.83;23.00;;;;;;;;;;4993924;28;20049;-71
2022/11/28 04:47:42;;;;;;;41.35;24.50;;;;;;;;;;4998664;28;20084;-71
2022/11/28 04:50:09;;;;;;;37.80;23.88;;;;;;;;;;5001078;28;20046;-71
2022/11/28 04:52:54;;;;;;;45.53;24.27;;;;;;;;;;4993853;28;21757;-71
2022/11/28 04:55:23;;;;;;;38.33;23.70;;;;;;;;;;4992005;28;20050;-71
2022/11/28 04:57:52;;;;;;;39.08;22.65;;;;;;;;;;4972991;28;20104;-71
2022/11/28 05:00:19;;;;;;;39.80;23.17;;;;;;;;;;4992946;28;20049;-71
2022/11/28 05:02:47;;;;;;;33.50;22.02;;;;;;;;;;4990066;28;20034;-71
2022/11/28 05:05:15;;;;;;;35.63;23.35;;;;;;;;;;4989472;28;20080;-71
2022/11/28 05:07:41;;;;;;;38.15;23.77;;;;;;;;;;4987489;28;20068;-71
2022/11/28 05:10:07;;;;;;;36.22;24.10;;;;;;;;;;4977907;28;20073;-71
2022/11/28 05:12:33;;;;;;;41.33;25.35;;;;;;;;;;4995769;28;20049;-71
2022/11/28 05:14:59;;;;;;;42.05;26.25;;;;;;;;;;4974409;28;20041;-71
2022/11/28 05:17:25;;;;;;;47.85;27.90;;;;;;;;;;4979879;28;20116;-71
2022/11/28 05:19:51;;;;;;;42.85;26.88;;;;;;;;;;4994323;28;20049;-71
2022/11/28 05:22:17;;;;;;;46.72;26.50;;;;;;;;;;4997453;28;20049;-71
2022/11/28 05:24:43;;;;;;;44.65;28.52;;;;;;;;;;4995192;28;20368;-71
2022/11/28 05:27:10;;;;;;;43.30;27.77;;;;;;;;;;4996098;28;20056;-71
2022/11/28 05:29:36;;;;;;;46.00;29.23;;;;;;;;;;4986771;28;20044;-71
2022/11/28 05:32:03;;;;;;;49.45;29.10;;;;;;;;;;4995014;28;20049;-71
2022/11/28 05:34:30;;;;;;;50.03;30.20;;;;;;;;;;4991423;28;20056;-72
2022/11/28 05:36:56;;;;;;;47.65;31.90;;;;;;;;;;4997130;28;20041;-71
2022/11/28 05:39:22;;;;;;;49.85;29.67;;;;;;;;;;4988951;28;20406;-71
2022/11/28 05:41:48;;;;;;;52.58;32.13;;;;;;;;;;5005898;28;20132;-71
2022/11/28 05:44:14;;;;;;;57.47;33.00;;;;;;;;;;4996892;28;20049;-71
2022/11/28 05:46:40;;;;;;;56.55;33.47;;;;;;;;;;4988806;28;20071;-71
2022/11/28 05:49:07;;;;;;;51.15;32.55;;;;;;;;;;4995465;28;20053;-71
2022/11/28 05:51:33;;;;;;;55.65;34.47;;;;;;;;;;4997344;28;20073;-71
2022/11/28 05:53:59;;;;;;;64.80;34.88;;;;;;;;;;4989674;28;20055;-72
2022/11/28 05:56:25;;;;;;;63.50;35.90;;;;;;;;;;4994591;28;20647;-72
2022/11/28 05:58:52;;;;;;;61.58;35.13;;;;;;;;;;4992052;28;20045;-71
2022/11/28 06:01:20;;;;;;;64.55;37.53;;;;;;;;;;4992251;28;20550;-72
2022/11/28 06:03:51;;;;;;;62.53;36.42;;;;;;;;;;4991724;28;20041;-72
2022/11/28 06:06:18;;;;;;;65.10;37.40;;;;;;;;;;4997602;28;20045;-72
2022/11/28 06:08:45;;;;;;;70.60;40.78;;;;;;;;;;5012845;28;20828;-72
2022/11/28 06:11:13;;;;;;;65.88;37.38;;;;;;;;;;4991707;28;20046;-72
2022/11/28 06:13:39;;;;;;;69.10;40.15;;;;;;;;;;4995988;28;20102;-71
2022/11/28 06:16:13;;;;;;;66.53;40.33;;;;;;;;;;4988902;28;20132;-72
2022/11/28 06:18:39;;;;;;;78.53;42.50;;;;;;;;;;4998586;28;20049;-73
2022/11/28 06:21:07;;;;;;;73.22;40.30;;;;;;;;;;4994010;28;20054;-73
2022/11/28 06:23:33;;;;;;;77.60;43.92;;;;;;;;;;4993877;28;20075;-73
2022/11/28 06:26:03;;;;;;;74.13;42.25;;;;;;;;;;4997314;28;20163;-72
2022/11/28 06:28:30;;;;;;;78.45;44.60;;;;;;;;;;4984932;28;20038;-73
2022/11/28 06:30:56;;;;;;;75.70;41.10;;;;;;;;;;4990653;28;20081;-72
2022/11/28 06:33:22;;;;;;;78.20;43.55;;;;;;;;;;4980979;28;20074;-72
2022/11/28 06:35:48;;;;;;;76.93;43.20;;;;;;;;;;4995876;28;20042;-72
2022/11/28 06:38:14;;;;;;;75.78;43.42;;;;;;;;;;4994139;28;20053;-73
2022/11/28 06:40:40;;;;;;;76.72;43.58;;;;;;;;;;4994776;28;20034;-73
2022/11/28 06:43:06;;;;;;;79.57;43.83;;;;;;;;;;4996387;28;20083;-72
2022/11/28 06:45:35;;;;;;;79.53;45.80;;;;;;;;;;4984838;28;20049;-72
2022/11/28 06:48:01;;;;;;;82.18;46.92;;;;;;;;;;4981575;28;20050;-72
2022/11/28 06:50:27;;;;;;;81.03;45.63;;;;;;;;;;4997344;28;20123;-72
2022/11/28 06:52:54;;;;;;;88.93;45.80;;;;;;;;;;4992318;28;20041;-73
2022/11/28 06:55:20;;;;;;;83.57;45.58;;;;;;;;;;4994618;28;20093;-72
2022/11/28 06:57:46;;;;;;;80.00;44.88;;;;;;;;;;4965270;28;20054;-72
2022/11/28 07:00:13;;;;;;;80.97;45.80;;;;;;;;;;4979190;28;20948;-72
2022/11/28 07:02:39;;;;;;;75.80;41.80;;;;;;;;;;4979337;28;20171;-71
2022/11/28 07:05:05;;;;;;;77.40;42.10;;;;;;;;;;4985194;28;20478;-71
2022/11/28 07:07:31;;;;;;;81.28;43.75;;;;;;;;;;5000954;28;20057;-71
2022/11/28 07:09:57;;;;;;;75.40;43.90;;;;;;;;;;4994833;28;22249;-71
2022/11/28 07:12:24;;;;;;;71.78;43.70;;;;;;;;;;5000255;28;20037;-71
2022/11/28 07:14:50;;;;;;;78.93;43.47;;;;;;;;;;4983864;28;20052;-72
2022/11/28 07:17:16;;;;;;;68.97;42.25;;;;;;;;;;4981692;28;20171;-71
2022/11/28 07:19:42;;;;;;;76.82;42.50;;;;;;;;;;4996193;28;20037;-71
2022/11/28 07:22:10;;;;;;;73.50;42.88;;;;;;;;;;4994659;28;20042;-71
2022/11/28 07:24:36;;;;;;;73.45;42.03;;;;;;;;;;4995210;28;20132;-71
2022/11/28 07:27:02;;;;;;;75.25;41.42;;;;;;;;;;4992678;28;20175;-71
2022/11/28 07:29:34;;;;;;;74.32;40.85;;;;;;;;;;4994895;28;20046;-72
2022/11/28 07:32:01;;;;;;;71.30;42.35;;;;;;;;;;4968670;28;22105;-72
2022/11/28 07:34:27;;;;;;;70.35;38.92;;;;;;;;;;4992452;28;20045;-71
2022/11/28 07:36:53;;;;;;;72.40;42.65;;;;;;;;;;4992042;28;20048;-72
2022/11/28 07:39:19;;;;;;;66.15;39.90;;;;;;;;;;4976270;28;20052;-71
2022/11/28 07:41:45;;;;;;;67.65;41.15;;;;;;;;;;4991513;28;20045;-71
2022/11/28 07:44:11;;;;;;;71.00;41.33;;;;;;;;;;5000610;28;20406;-70
2022/11/28 07:46:38;;;;;;;72.72;42.83;;;;;;;;;;4996328;28;20045;-70
2022/11/28 07:49:04;;;;;;;70.15;43.08;;;;;;;;;;5001860;28;20055;-70
2022/11/28 07:51:32;;;;;;;83.55;42.70;;;;;;;;;;4999174;28;20053;-70
2022/11/28 07:53:58;;;;;;;67.93;41.17;;;;;;;;;;5001848;28;20048;-70
2022/11/28 07:56:26;;;;;;;74.82;43.70;;;;;;;;;;4993110;28;20049;-70
2022/11/28 07:58:52;;;;;;;76.25;43.25;;;;;;;;;;4999144;28;20040;-70
2022/11/28 08:01:28;;;;;;;65.70;39.22;;;;;;;;;;5001048;28;20077;-70
2022/11/28 08:03:54;;;;;;;64.50;39.08;;;;;;;;;;4997608;28;20497;-70
2022/11/28 08:06:22;;;;;;;65.38;40.45;;;;;;;;;;5000069;28;20068;-70
2022/11/28 08:08:49;;;;;;;74.93;42.20;;;;;;;;;;5004285;28;20046;-70
2022/11/28 08:11:16;;;;;;;71.95;40.75;;;;;;;;;;5003822;28;20458;-70
2022/11/28 08:13:42;;;;;;;72.15;39.70;;;;;;;;;;4997600;28;20045;-70
2022/11/28 08:16:11;;;;;;;62.15;36.40;;;;;;;;;;4997655;28;22115;-71
2022/11/28 08:18:37;;;;;;;69.78;40.15;;;;;;;;;;4987856;28;20056;-71
2022/11/28 08:21:07;;;;;;;67.00;38.00;;;;;;;;;;5001488;28;20046;-70
2022/11/28 08:23:34;;;;;;;57.33;35.33;;;;;;;;;;5000516;28;20337;-71
2022/11/28 08:26:01;;;;;;;59.03;35.55;;;;;;;;;;4999562;28;20123;-70
2022/11/28 08:28:27;;;;;;;55.65;34.90;;;;;;;;;;4999947;28;20052;-70
2022/11/28 08:30:53;;;;;;;66.45;38.30;;;;;;;;;;5001387;28;20072;-70
2022/11/28 08:33:20;;;;;;;54.88;33.97;;;;;;;;;;4997437;28;20077;-70
2022/11/28 08:35:46;;;;;;;56.92;36.22;;;;;;;;;;4996662;28;20054;-70
2022/11/28 08:38:12;;;;;;;56.22;35.38;;;;;;;;;;5000308;28;20042;-70
2022/11/28 08:40:38;;;;;;;51.05;33.25;;;;;;;;;;4998216;28;20164;-70
2022/11/28 08:43:06;;;;;;;58.65;36.25;;;;;;;;;;4998237;28;20073;-70
2022/11/28 08:45:32;;;;;;;54.10;34.17;;;;;;;;;;4999097;28;20049;-70
2022/11/28 08:47:58;;;;;;;53.40;34.67;;;;;;;;;;4996974;28;20068;-70
2022/11/28 08:50:24;;;;;;;58.10;34.72;;;;;;;;;;5000088;28;20046;-70
2022/11/28 08:52:50;;;;;;;47.95;31.02;;;;;;;;;;4996259;28;20133;-70
2022/11/28 08:55:16;;;;;;;47.97;30.58;;;;;;;;;;4995822;28;21871;-70
2022/11/28 08:57:42;;;;;;;49.15;31.20;;;;;;;;;;4996608;28;20167;-69
2022/11/28 09:00:08;;;;;;;50.33;30.40;;;;;;;;;;5003699;28;20050;-70
2022/11/28 09:02:34;;;;;;;52.20;31.25;;;;;;;;;;4981575;28;20037;-70
2022/11/28 09:05:01;;;;;;;51.83;30.45;;;;;;;;;;4997001;28;20129;-70
2022/11/28 09:07:27;;;;;;;53.53;31.83;;;;;;;;;;4982818;28;20155;-70
2022/11/28 09:09:53;;;;;;;48.95;30.20;;;;;;;;;;4997831;28;20053;-70
2022/11/28 09:12:19;;;;;;;44.10;29.00;;;;;;;;;;4986338;28;21705;-70
2022/11/28 09:14:45;;;;;;;45.63;28.35;;;;;;;;;;4996578;28;20970;-70
2022/11/28 09:17:11;;;;;;;41.70;25.90;;;;;;;;;;4983228;28;20034;-70
2022/11/28 09:19:37;;;;;;;50.03;28.80;;;;;;;;;;5001023;28;20037;-70
2022/11/28 09:22:03;;;;;;;44.35;26.45;;;;;;;;;;4994960;28;20054;-70
2022/11/28 09:24:30;;;;;;;50.75;28.50;;;;;;;;;;4993435;28;20049;-70
2022/11/28 09:26:56;;;;;;;41.20;25.08;;;;;;;;;;4997779;28;20042;-70
2022/11/28 09:29:22;;;;;;;41.85;25.27;;;;;;;;;;4997937;28;20053;-70
2022/11/28 09:31:48;;;;;;;41.08;24.05;;;;;;;;;;4996460;28;20041;-70
2022/11/28 09:34:14;;;;;;;45.97;26.83;;;;;;;;;;4996920;28;21689;-70
2022/11/28 09:36:40;;;;;;;46.25;26.17;;;;;;;;;;4998542;28;20069;-70
2022/11/28 09:39:06;;;;;;;48.67;25.17;;;;;;;;;;4978905;28;20041;-70
2022/11/28 09:41:51;;;;;;;47.25;26.35;;;;;;;;;;5000042;28;22045;-70
2022/11/28 09:44:40;;;;;;;43.30;24.33;;;;;;;;;;4998656;28;20049;-71
2022/11/28 09:47:10;;;;;;;41.25;24.40;;;;;;;;;;4996764;28;21957;-70
2022/11/28 09:49:42;;;;;;;38.33;22.20;;;;;;;;;;4997694;28;20045;-70
2022/11/28 09:52:23;;;;;;;40.67;22.52;;;;;;;;;;4995855;28;20045;-70
2022/11/28 09:54:58;;;;;;;34.08;21.23;;;;;;;;;;5001242;28;20370;-70
2022/11/28 09:57:36;;;;;;;34.97;21.85;;;;;;;;;;4997883;28;20045;-71
2022/11/28 10:00:03;;;;;;;34.58;22.17;;;;;;;;;;4996843;28;20064;-71
2022/11/28 10:02:33;;;;;;;36.38;21.63;;;;;;;;;;4997986;28;20041;-70
2022/11/28 10:04:59;;;;;;;33.30;21.13;;;;;;;;;;4998572;28;20058;-70
2022/11/28 10:07:34;;;;;;;35.40;20.50;;;;;;;;;;4999895;28;20463;-71
2022/11/28 10:10:03;;;;;;;35.35;20.02;;;;;;;;;;4995829;28;20099;-71
2022/11/28 10:12:29;;;;;;;36.40;21.65;;;;;;;;;;4992016;28;20060;-71
2022/11/28 10:15:05;;;;;;;34.05;19.50;;;;;;;;;;5002295;28;20125;-71
2022/11/28 10:17:49;;;;;;;29.67;18.00;;;;;;;;;;5002755;28;20987;-71
2022/11/28 10:20:30;;;;;;;27.83;18.15;;;;;;;;;;5003978;28;20095;-71
2022/11/28 10:23:00;;;;;;;27.38;16.60;;;;;;;;;;4997281;28;20053;-71
2022/11/28 10:25:29;;;;;;;26.92;16.20;;;;;;;;;;4998118;28;20108;-71
2022/11/28 10:27:56;;;;;;;28.23;17.52;;;;;;;;;;5001670;28;20488;-71
2022/11/28 10:30:22;;;;;;;23.30;15.40;;;;;;;;;;4999923;28;20464;-71
2022/11/28 10:33:09;;;;;;;27.02;17.60;;;;;;;;;;4997990;28;20060;-71
2022/11/28 10:35:47;;;;;;;23.67;17.35;;;;;;;;;;4982917;28;20512;-79
2022/11/28 10:38:13;;;;;;;25.63;15.55;;;;;;;;;;5010519;28;20178;-78
2022/11/28 10:40:43;;;;;;;25.42;15.50;;;;;;;;;;4991891;28;20168;-79
2022/11/28 10:43:18;;;;;;;28.92;17.73;;;;;;;;;;5011194;28;20111;-79
2022/11/28 10:45:44;;;;;;;22.38;14.90;;;;;;;;;;5010818;28;20060;-79
2022/11/28 10:48:14;;;;;;;24.05;15.32;;;;;;;;;;5012716;28;20034;-80
2022/11/28 10:50:58;;;;;;;28.70;16.92;;;;;;;;;;5027039;28;20096;-80
2022/11/28 10:53:24;;;;;;;26.20;17.10;;;;;;;;;;5016467;28;20048;-78
2022/11/28 10:55:54;;;;;;;24.90;15.07;;;;;;;;;;4995836;28;22424;-71
2022/11/28 10:58:24;;;;;;;23.58;16.55;;;;;;;;;;4994929;28;20269;-72
2022/11/28 11:00:54;;;;;;;23.08;16.27;;;;;;;;;;4995481;28;20042;-72
2022/11/28 11:03:25;;;;;;;24.75;17.60;;;;;;;;;;4996028;28;20064;-71
2022/11/28 11:05:51;;;;;;;22.75;15.82;;;;;;;;;;4995964;28;22040;-72
2022/11/28 11:08:19;;;;;;;25.73;16.17;;;;;;;;;;4996001;28;20065;-71
2022/11/28 11:10:49;;;;;;;24.30;15.98;;;;;;;;;;4996166;28;22029;-71
2022/11/28 11:13:21;;;;;;;26.45;17.33;;;;;;;;;;4991552;28;20493;-71
2022/11/28 11:15:50;;;;;;;24.90;14.48;;;;;;;;;;4996805;28;20054;-71
2022/11/28 11:18:37;;;;;;;27.98;17.83;;;;;;;;;;4976489;28;20185;-72
2022/11/28 11:21:09;;;;;;;25.65;17.15;;;;;;;;;;4999247;28;20069;-72
2022/11/28 11:23:35;;;;;;;24.17;16.00;;;;;;;;;;4998967;28;20052;-71
2022/11/28 11:26:01;;;;;;;23.23;16.40;;;;;;;;;;4999145;28;20045;-72
2022/11/28 11:28:36;;;;;;;30.63;17.75;;;;;;;;;;5001609;28;20046;-72
2022/11/28 11:31:04;;;;;;;25.80;17.77;;;;;;;;;;5000414;28;20127;-72
2022/11/28 11:33:33;;;;;;;25.08;17.08;;;;;;;;;;4987651;28;20044;-72
2022/11/28 11:36:01;;;;;;;25.08;16.67;;;;;;;;;;5008839;28;20119;-72
2022/11/28 11:38:29;;;;;;;27.35;17.98;;;;;;;;;;5000125;28;20042;-72
2022/11/28 11:40:55;;;;;;;28.70;18.45;;;;;;;;;;5000292;28;20550;-72
2022/11/28 11:43:21;;;;;;;27.23;18.30;;;;;;;;;;5001847;28;20041;-72
2022/11/28 11:45:47;;;;;;;33.38;18.42;;;;;;;;;;4998764;28;20045;-77
2022/11/28 11:48:13;;;;;;;24.75;17.00;;;;;;;;;;4996778;28;20073;-78
2022/11/28 11:50:52;;;;;;;27.33;18.48;;;;;;;;;;5001951;28;20053;-78
2022/11/28 11:53:18;;;;;;;25.33;18.42;;;;;;;;;;4997960;28;20157;-77
2022/11/28 11:55:49;;;;;;;25.75;17.98;;;;;;;;;;4998690;28;20037;-77
2022/11/28 11:58:17;;;;;;;32.58;20.10;;;;;;;;;;4998060;28;20045;-76
2022/11/28 12:00:44;;;;;;;27.63;18.13;;;;;;;;;;4998989;28;20059;-76
2022/11/28 12:03:18;;;;;;;28.13;18.38;;;;;;;;;;4967013;28;20069;-76
2022/11/28 12:05:44;;;;;;;29.02;19.58;;;;;;;;;;4999041;28;20046;-76
2022/11/28 12:08:13;;;;;;;26.42;17.38;;;;;;;;;;4978430;28;20064;-76
2022/11/28 12:10:42;;;;;;;27.63;17.77;;;;;;;;;;4997624;28;20207;-76
2022/11/28 12:13:17;;;;;;;30.38;19.23;;;;;;;;;;4986462;28;20694;-76
2022/11/28 12:15:53;;;;;;;29.35;18.70;;;;;;;;;;4999726;28;20053;-76
2022/11/28 12:18:31;;;;;;;34.20;19.98;;;;;;;;;;4996958;28;20050;-76
2022/11/28 12:21:12;;;;;;;25.75;16.40;;;;;;;;;;4998042;28;20041;-75
2022/11/28 12:23:57;;;;;;;30.95;19.45;;;;;;;;;;4986124;28;20048;-76
2022/11/28 12:26:39;;;;;;;29.20;18.20;;;;;;;;;;4998826;28;20152;-76
2022/11/28 12:29:18;;;;;;;32.03;18.73;;;;;;;;;;4997129;28;20177;-76
2022/11/28 12:31:50;;;;;;;28.65;18.27;;;;;;;;;;5012698;28;20054;-76
2022/11/28 12:34:22;;;;;;;32.00;20.23;;;;;;;;;;4997700;28;20057;-76
2022/11/28 12:37:12;;;;;;;34.15;20.80;;;;;;;;;;5007828;28;20041;-76
2022/11/28 12:39:38;;;;;;;31.77;19.10;;;;;;;;;;4965376;28;20053;-76
2022/11/28 12:42:15;;;;;;;30.90;18.88;;;;;;;;;;5001158;28;20091;-76
2022/11/28 12:44:41;;;;;;;28.02;17.58;;;;;;;;;;4984406;28;20041;-77
2022/11/28 12:47:13;;;;;;;28.95;18.98;;;;;;;;;;4996264;28;20050;-77
2022/11/28 12:49:58;;;;;;;29.08;18.00;;;;;;;;;;4999496;28;20102;-77
2022/11/28 12:52:35;;;;;;;31.02;19.35;;;;;;;;;;4998865;28;20167;-77
2022/11/28 12:55:16;;;;;;;33.15;19.92;;;;;;;;;;4999780;28;20056;-78
2022/11/28 12:57:55;;;;;;;33.22;20.35;;;;;;;;;;4990321;28;20077;-77
2022/11/28 13:00:24;;;;;;;34.08;20.73;;;;;;;;;;5003082;28;20049;-77
2022/11/28 13:03:26;;;;;;;38.33;21.20;;;;;;;;;;5011384;28;20161;-76
2022/11/28 13:05:55;;;;;;;33.15;20.90;;;;;;;;;;4968489;28;20115;-75
2022/11/28 13:08:21;;;;;;;41.72;22.58;;;;;;;;;;4992154;28;20107;-76
2022/11/28 13:11:06;;;;;;;38.60;22.67;;;;;;;;;;4999531;28;20502;-77
2022/11/28 13:13:38;;;;;;;40.95;23.35;;;;;;;;;;4999165;28;20788;-76
2022/11/28 13:16:19;;;;;;;35.88;21.23;;;;;;;;;;5002765;28;20109;-77
2022/11/28 13:19:03;;;;;;;34.72;21.13;;;;;;;;;;4998815;28;20077;-77
2022/11/28 13:21:39;;;;;;;37.50;21.08;;;;;;;;;;4996811;28;20045;-77
2022/11/28 13:24:12;;;;;;;36.97;21.88;;;;;;;;;;4982770;28;21880;-76
2022/11/28 13:26:57;;;;;;;38.85;21.42;;;;;;;;;;4998937;28;20041;-76
2022/11/28 13:29:42;;;;;;;38.75;22.15;;;;;;;;;;5004425;28;20049;-77
2022/11/28 13:32:21;;;;;;;35.97;20.10;;;;;;;;;;4999707;28;23764;-76
2022/11/28 13:34:48;;;;;;;37.92;21.20;;;;;;;;;;5000027;28;20081;-77
2022/11/28 13:37:17;;;;;;;40.63;22.33;;;;;;;;;;4982960;28;20045;-77
2022/11/28 13:39:52;;;;;;;37.00;21.33;;;;;;;;;;4998061;28;20056;-77
2022/11/28 13:42:23;;;;;;;39.40;22.65;;;;;;;;;;4979387;28;20045;-77
2022/11/28 13:44:55;;;;;;;40.95;23.63;;;;;;;;;;4993440;28;20056;-76
2022/11/28 13:47:21;;;;;;;38.67;22.58;;;;;;;;;;5001510;28;20045;-75
2022/11/28 13:49:48;;;;;;;36.95;19.67;;;;;;;;;;4998509;28;20119;-77
2022/11/28 13:52:17;;;;;;;34.60;21.33;;;;;;;;;;5011468;28;20045;-77
2022/11/28 13:54:49;;;;;;;42.95;25.42;;;;;;;;;;4998671;28;20046;-77
2022/11/28 13:57:23;;;;;;;40.53;22.50;;;;;;;;;;4987648;28;20405;-77
2022/11/28 13:59:58;;;;;;;37.85;21.70;;;;;;;;;;4997016;28;20139;-77
2022/11/28 14:02:36;;;;;;;36.28;21.67;;;;;;;;;;4999748;28;20045;-77
2022/11/28 14:05:03;;;;;;;36.78;21.05;;;;;;;;;;4996109;28;21023;-77
2022/11/28 14:07:30;;;;;;;38.53;22.05;;;;;;;;;;4989214;28;20050;-77
2022/11/28 14:10:07;;;;;;;37.15;22.13;;;;;;;;;;4997136;28;20054;-76
2022/11/28 14:13:03;;;;;;;37.95;20.80;;;;;;;;;;4997979;28;20056;-77
2022/11/28 14:15:37;;;;;;;38.15;21.42;;;;;;;;;;4988492;28;20509;-76
2022/11/28 14:18:03;;;;;;;37.35;22.83;;;;;;;;;;4998481;28;20103;-77
2022/11/28 14:20:51;;;;;;;34.22;21.15;;;;;;;;;;4987939;28;20052;-77
2022/11/28 14:23:23;;;;;;;40.17;22.70;;;;;;;;;;5005597;28;20041;-79
2022/11/28 14:25:50;;;;;;;35.17;20.25;;;;;;;;;;4980145;28;20037;-79
2022/11/28 14:28:19;;;;;;;40.15;22.83;;;;;;;;;;4984334;28;20045;-79
2022/11/28 14:30:46;;;;;;;33.05;20.70;;;;;;;;;;4997498;28;20059;-79
2022/11/28 14:33:18;;;;;;;34.15;20.95;;;;;;;;;;4984481;28;20089;-79
2022/11/28 14:35:50;;;;;;;37.83;21.25;;;;;;;;;;4998780;28;20049;-76